sensor_id;sensor_type;location;lat;lon;timestamp;P1;durP1;ratioP1;P2;durP2;ratioP2
9138;SDS011;4604;48.616;9.548;2022-07-23T00:00:09;6.72;;;5.15;;
9138;SDS011;4604;48.616;9.548;2022-07-23T00:02:37;5.95;;;5.35;;
9138;SDS011;4604;48.616;9.548;2022-07-23T00:05:04;6.47;;;5.35;;
9138;SDS011;4604;48.616;9.548;2022-07-23T00:07:31;6.00;;;5.20;;
9138;SDS011;4604;48.616;9.548;2022-07-23T00:09:58;7.72;;;5.97;;
9138;SDS011;4604;48.616;9.548;2022-07-23T00:12:24;5.78;;;5.18;;
9138;SDS011;4604;48.616;9.548;2022-07-23T00:14:52;5.85;;;5.10;;
9138;SDS011;4604;48.616;9.548;2022-07-23T00:17:19;6.38;;;4.95;;
9138;SDS011;4604;48.616;9.548;2022-07-23T00:19:46;5.57;;;5.07;;
9138;SDS011;4604;48.616;9.548;2022-07-23T00:22:13;9.98;;;5.07;;
9138;SDS011;4604;48.616;9.548;2022-07-23T00:24:40;5.95;;;5.35;;
9138;SDS011;4604;48.616;9.548;2022-07-23T00:27:07;7.80;;;5.57;;
9138;SDS011;4604;48.616;9.548;2022-07-23T00:29:33;10.85;;;5.93;;
9138;SDS011;4604;48.616;9.548;2022-07-23T00:32:02;5.75;;;4.95;;
9138;SDS011;4604;48.616;9.548;2022-07-23T00:34:28;5.93;;;4.35;;
9138;SDS011;4604;48.616;9.548;2022-07-23T00:36:55;5.47;;;4.97;;
9138;SDS011;4604;48.616;9.548;2022-07-23T00:39:22;7.32;;;4.65;;
9138;SDS011;4604;48.616;9.548;2022-07-23T00:41:49;5.88;;;5.07;;
9138;SDS011;4604;48.616;9.548;2022-07-23T00:44:19;6.97;;;5.10;;
9138;SDS011;4604;48.616;9.548;2022-07-23T00:46:48;5.65;;;5.00;;
9138;SDS011;4604;48.616;9.548;2022-07-23T00:49:19;5.57;;;4.97;;
9138;SDS011;4604;48.616;9.548;2022-07-23T00:51:47;7.18;;;4.85;;
9138;SDS011;4604;48.616;9.548;2022-07-23T00:54:15;5.72;;;5.18;;
9138;SDS011;4604;48.616;9.548;2022-07-23T00:56:42;5.85;;;5.25;;
9138;SDS011;4604;48.616;9.548;2022-07-23T00:59:10;6.88;;;5.35;;
9138;SDS011;4604;48.616;9.548;2022-07-23T01:01:37;5.72;;;5.13;;
9138;SDS011;4604;48.616;9.548;2022-07-23T01:04:04;5.45;;;4.88;;
9138;SDS011;4604;48.616;9.548;2022-07-23T01:06:34;5.90;;;5.30;;
9138;SDS011;4604;48.616;9.548;2022-07-23T01:09:04;5.93;;;5.32;;
9138;SDS011;4604;48.616;9.548;2022-07-23T01:11:31;6.72;;;5.32;;
9138;SDS011;4604;48.616;9.548;2022-07-23T01:14:07;5.72;;;5.15;;
9138;SDS011;4604;48.616;9.548;2022-07-23T01:16:34;6.55;;;5.43;;
9138;SDS011;4604;48.616;9.548;2022-07-23T01:19:01;6.93;;;5.55;;
9138;SDS011;4604;48.616;9.548;2022-07-23T01:21:31;6.32;;;5.30;;
9138;SDS011;4604;48.616;9.548;2022-07-23T01:24:03;6.15;;;5.50;;
9138;SDS011;4604;48.616;9.548;2022-07-23T01:26:30;6.57;;;5.30;;
9138;SDS011;4604;48.616;9.548;2022-07-23T01:28:57;5.70;;;5.20;;
9138;SDS011;4604;48.616;9.548;2022-07-23T01:31:24;6.85;;;5.28;;
9138;SDS011;4604;48.616;9.548;2022-07-23T01:33:51;5.70;;;5.03;;
9138;SDS011;4604;48.616;9.548;2022-07-23T01:36:17;5.90;;;5.30;;
9138;SDS011;4604;48.616;9.548;2022-07-23T01:38:44;5.95;;;5.18;;
9138;SDS011;4604;48.616;9.548;2022-07-23T01:41:12;6.88;;;5.70;;
9138;SDS011;4604;48.616;9.548;2022-07-23T01:43:39;7.22;;;5.13;;
9138;SDS011;4604;48.616;9.548;2022-07-23T01:46:06;5.65;;;5.15;;
9138;SDS011;4604;48.616;9.548;2022-07-23T01:48:33;7.70;;;5.22;;
9138;SDS011;4604;48.616;9.548;2022-07-23T01:51:00;5.72;;;5.05;;
9138;SDS011;4604;48.616;9.548;2022-07-23T01:53:26;6.07;;;5.47;;
9138;SDS011;4604;48.616;9.548;2022-07-23T01:55:56;7.20;;;5.35;;
9138;SDS011;4604;48.616;9.548;2022-07-23T01:58:24;6.57;;;5.20;;
9138;SDS011;4604;48.616;9.548;2022-07-23T02:00:51;6.45;;;5.75;;
9138;SDS011;4604;48.616;9.548;2022-07-23T02:03:17;5.65;;;5.13;;
9138;SDS011;4604;48.616;9.548;2022-07-23T02:05:44;6.07;;;5.20;;
9138;SDS011;4604;48.616;9.548;2022-07-23T02:08:11;6.15;;;4.90;;
9138;SDS011;4604;48.616;9.548;2022-07-23T02:10:38;6.05;;;5.10;;
9138;SDS011;4604;48.616;9.548;2022-07-23T02:13:05;7.82;;;5.70;;
9138;SDS011;4604;48.616;9.548;2022-07-23T02:15:33;5.57;;;5.05;;
9138;SDS011;4604;48.616;9.548;2022-07-23T02:18:00;6.97;;;5.82;;
9138;SDS011;4604;48.616;9.548;2022-07-23T02:20:27;8.00;;;4.95;;
9138;SDS011;4604;48.616;9.548;2022-07-23T02:22:54;5.80;;;5.20;;
9138;SDS011;4604;48.616;9.548;2022-07-23T02:25:21;5.88;;;5.28;;
9138;SDS011;4604;48.616;9.548;2022-07-23T02:27:47;6.30;;;5.65;;
9138;SDS011;4604;48.616;9.548;2022-07-23T02:30:14;7.35;;;5.40;;
9138;SDS011;4604;48.616;9.548;2022-07-23T02:32:42;5.57;;;5.07;;
9138;SDS011;4604;48.616;9.548;2022-07-23T02:35:09;5.90;;;5.00;;
9138;SDS011;4604;48.616;9.548;2022-07-23T02:37:36;7.30;;;5.30;;
9138;SDS011;4604;48.616;9.548;2022-07-23T02:40:03;5.85;;;5.20;;
9138;SDS011;4604;48.616;9.548;2022-07-23T02:42:30;6.65;;;5.65;;
9138;SDS011;4604;48.616;9.548;2022-07-23T02:44:57;6.95;;;5.55;;
9138;SDS011;4604;48.616;9.548;2022-07-23T02:47:24;6.32;;;5.22;;
9138;SDS011;4604;48.616;9.548;2022-07-23T02:49:52;6.18;;;5.13;;
9138;SDS011;4604;48.616;9.548;2022-07-23T02:52:19;6.65;;;5.72;;
9138;SDS011;4604;48.616;9.548;2022-07-23T02:54:46;5.55;;;5.00;;
9138;SDS011;4604;48.616;9.548;2022-07-23T02:57:13;5.25;;;4.72;;
9138;SDS011;4604;48.616;9.548;2022-07-23T02:59:39;5.85;;;5.20;;
9138;SDS011;4604;48.616;9.548;2022-07-23T03:02:06;7.93;;;5.50;;
9138;SDS011;4604;48.616;9.548;2022-07-23T03:04:33;5.97;;;5.40;;
9138;SDS011;4604;48.616;9.548;2022-07-23T03:07:04;8.13;;;5.50;;
9138;SDS011;4604;48.616;9.548;2022-07-23T03:09:31;6.20;;;5.60;;
9138;SDS011;4604;48.616;9.548;2022-07-23T03:11:57;6.63;;;5.10;;
9138;SDS011;4604;48.616;9.548;2022-07-23T03:14:24;5.68;;;5.07;;
9138;SDS011;4604;48.616;9.548;2022-07-23T03:16:52;5.68;;;5.07;;
9138;SDS011;4604;48.616;9.548;2022-07-23T03:19:19;5.85;;;5.28;;
9138;SDS011;4604;48.616;9.548;2022-07-23T03:21:46;6.50;;;4.78;;
9138;SDS011;4604;48.616;9.548;2022-07-23T03:24:15;5.18;;;4.68;;
9138;SDS011;4604;48.616;9.548;2022-07-23T03:26:42;6.65;;;5.38;;
9138;SDS011;4604;48.616;9.548;2022-07-23T03:29:09;5.78;;;4.97;;
9138;SDS011;4604;48.616;9.548;2022-07-23T03:31:36;8.40;;;5.35;;
9138;SDS011;4604;48.616;9.548;2022-07-23T03:34:03;6.68;;;5.00;;
9138;SDS011;4604;48.616;9.548;2022-07-23T03:36:30;7.10;;;4.57;;
9138;SDS011;4604;48.616;9.548;2022-07-23T03:38:57;5.70;;;5.10;;
9138;SDS011;4604;48.616;9.548;2022-07-23T03:41:25;5.63;;;4.97;;
9138;SDS011;4604;48.616;9.548;2022-07-23T03:43:52;6.53;;;5.80;;
9138;SDS011;4604;48.616;9.548;2022-07-23T03:46:18;6.07;;;5.47;;
9138;SDS011;4604;48.616;9.548;2022-07-23T03:48:45;7.10;;;5.20;;
9138;SDS011;4604;48.616;9.548;2022-07-23T03:51:12;5.57;;;5.07;;
9138;SDS011;4604;48.616;9.548;2022-07-23T03:53:38;6.93;;;5.30;;
9138;SDS011;4604;48.616;9.548;2022-07-23T03:56:05;6.40;;;5.10;;
9138;SDS011;4604;48.616;9.548;2022-07-23T03:58:34;5.57;;;5.05;;
9138;SDS011;4604;48.616;9.548;2022-07-23T04:01:01;8.32;;;5.50;;
9138;SDS011;4604;48.616;9.548;2022-07-23T04:03:28;5.40;;;4.90;;
9138;SDS011;4604;48.616;9.548;2022-07-23T04:05:54;5.28;;;4.78;;
9138;SDS011;4604;48.616;9.548;2022-07-23T04:08:21;6.20;;;5.22;;
9138;SDS011;4604;48.616;9.548;2022-07-23T04:10:48;6.75;;;5.03;;
9138;SDS011;4604;48.616;9.548;2022-07-23T04:13:15;5.70;;;5.10;;
9138;SDS011;4604;48.616;9.548;2022-07-23T04:15:43;5.38;;;4.88;;
9138;SDS011;4604;48.616;9.548;2022-07-23T04:18:10;7.25;;;5.15;;
9138;SDS011;4604;48.616;9.548;2022-07-23T04:20:37;5.28;;;4.68;;
9138;SDS011;4604;48.616;9.548;2022-07-23T04:23:03;6.93;;;5.15;;
9138;SDS011;4604;48.616;9.548;2022-07-23T04:25:30;5.60;;;4.82;;
9138;SDS011;4604;48.616;9.548;2022-07-23T04:27:57;6.10;;;5.07;;
9138;SDS011;4604;48.616;9.548;2022-07-23T04:30:24;5.88;;;4.95;;
9138;SDS011;4604;48.616;9.548;2022-07-23T04:32:52;5.53;;;4.85;;
9138;SDS011;4604;48.616;9.548;2022-07-23T04:35:21;6.10;;;4.78;;
9138;SDS011;4604;48.616;9.548;2022-07-23T04:37:48;5.22;;;4.72;;
9138;SDS011;4604;48.616;9.548;2022-07-23T04:40:15;5.22;;;4.72;;
9138;SDS011;4604;48.616;9.548;2022-07-23T04:42:43;6.50;;;5.57;;
9138;SDS011;4604;48.616;9.548;2022-07-23T04:45:10;6.95;;;5.60;;
9138;SDS011;4604;48.616;9.548;2022-07-23T04:47:37;6.15;;;5.50;;
9138;SDS011;4604;48.616;9.548;2022-07-23T04:50:05;5.95;;;5.35;;
9138;SDS011;4604;48.616;9.548;2022-07-23T04:52:32;7.13;;;5.18;;
9138;SDS011;4604;48.616;9.548;2022-07-23T04:54:59;7.53;;;5.07;;
9138;SDS011;4604;48.616;9.548;2022-07-23T04:57:26;5.60;;;5.10;;
9138;SDS011;4604;48.616;9.548;2022-07-23T04:59:53;5.80;;;5.20;;
9138;SDS011;4604;48.616;9.548;2022-07-23T05:02:20;5.40;;;4.90;;
9138;SDS011;4604;48.616;9.548;2022-07-23T05:04:47;9.38;;;5.07;;
9138;SDS011;4604;48.616;9.548;2022-07-23T05:07:15;5.80;;;5.18;;
9138;SDS011;4604;48.616;9.548;2022-07-23T05:09:42;6.90;;;5.07;;
9138;SDS011;4604;48.616;9.548;2022-07-23T05:12:08;5.93;;;5.30;;
9138;SDS011;4604;48.616;9.548;2022-07-23T05:14:35;6.93;;;5.57;;
9138;SDS011;4604;48.616;9.548;2022-07-23T05:17:02;6.75;;;6.05;;
9138;SDS011;4604;48.616;9.548;2022-07-23T05:19:29;6.22;;;5.30;;
9138;SDS011;4604;48.616;9.548;2022-07-23T05:21:55;6.90;;;6.10;;
9138;SDS011;4604;48.616;9.548;2022-07-23T05:24:24;5.82;;;5.22;;
9138;SDS011;4604;48.616;9.548;2022-07-23T05:26:50;8.30;;;5.78;;
9138;SDS011;4604;48.616;9.548;2022-07-23T05:29:17;6.80;;;6.00;;
9138;SDS011;4604;48.616;9.548;2022-07-23T05:31:44;6.97;;;5.63;;
9138;SDS011;4604;48.616;9.548;2022-07-23T05:34:11;6.68;;;5.95;;
9138;SDS011;4604;48.616;9.548;2022-07-23T05:36:38;5.85;;;5.30;;
9138;SDS011;4604;48.616;9.548;2022-07-23T05:39:05;8.32;;;5.72;;
9138;SDS011;4604;48.616;9.548;2022-07-23T05:41:33;11.07;;;6.43;;
9138;SDS011;4604;48.616;9.548;2022-07-23T05:44:00;7.22;;;5.78;;
9138;SDS011;4604;48.616;9.548;2022-07-23T05:46:26;6.35;;;5.75;;
9138;SDS011;4604;48.616;9.548;2022-07-23T05:48:53;10.23;;;5.80;;
9138;SDS011;4604;48.616;9.548;2022-07-23T05:51:20;6.45;;;5.70;;
9138;SDS011;4604;48.616;9.548;2022-07-23T05:53:47;8.02;;;5.93;;
9138;SDS011;4604;48.616;9.548;2022-07-23T05:56:16;7.90;;;5.93;;
9138;SDS011;4604;48.616;9.548;2022-07-23T05:58:46;7.55;;;5.97;;
9138;SDS011;4604;48.616;9.548;2022-07-23T06:01:14;8.82;;;6.45;;
9138;SDS011;4604;48.616;9.548;2022-07-23T06:03:41;7.68;;;6.10;;
9138;SDS011;4604;48.616;9.548;2022-07-23T06:06:16;8.35;;;5.72;;
9138;SDS011;4604;48.616;9.548;2022-07-23T06:08:43;7.28;;;6.00;;
9138;SDS011;4604;48.616;9.548;2022-07-23T06:11:12;6.15;;;5.55;;
9138;SDS011;4604;48.616;9.548;2022-07-23T06:13:39;17.10;;;6.45;;
9138;SDS011;4604;48.616;9.548;2022-07-23T06:16:07;6.88;;;6.18;;
9138;SDS011;4604;48.616;9.548;2022-07-23T06:18:34;6.57;;;5.97;;
9138;SDS011;4604;48.616;9.548;2022-07-23T06:21:01;6.63;;;5.97;;
9138;SDS011;4604;48.616;9.548;2022-07-23T06:23:28;6.65;;;5.95;;
9138;SDS011;4604;48.616;9.548;2022-07-23T06:25:55;6.25;;;5.65;;
9138;SDS011;4604;48.616;9.548;2022-07-23T06:28:22;8.75;;;6.20;;
9138;SDS011;4604;48.616;9.548;2022-07-23T06:30:49;7.55;;;5.85;;
9138;SDS011;4604;48.616;9.548;2022-07-23T06:33:17;6.68;;;5.97;;
9138;SDS011;4604;48.616;9.548;2022-07-23T06:35:44;6.30;;;5.45;;
9138;SDS011;4604;48.616;9.548;2022-07-23T06:38:11;8.18;;;5.13;;
9138;SDS011;4604;48.616;9.548;2022-07-23T06:40:40;8.63;;;5.93;;
9138;SDS011;4604;48.616;9.548;2022-07-23T06:43:09;6.45;;;5.50;;
9138;SDS011;4604;48.616;9.548;2022-07-23T06:45:37;6.18;;;5.57;;
9138;SDS011;4604;48.616;9.548;2022-07-23T06:48:04;6.13;;;5.53;;
9138;SDS011;4604;48.616;9.548;2022-07-23T06:50:36;6.93;;;5.72;;
9138;SDS011;4604;48.616;9.548;2022-07-23T06:53:02;7.03;;;6.25;;
9138;SDS011;4604;48.616;9.548;2022-07-23T06:55:29;6.93;;;6.28;;
9138;SDS011;4604;48.616;9.548;2022-07-23T06:58:03;7.88;;;6.07;;
9138;SDS011;4604;48.616;9.548;2022-07-23T07:00:30;7.25;;;6.55;;
9138;SDS011;4604;48.616;9.548;2022-07-23T07:02:57;7.75;;;6.53;;
9138;SDS011;4604;48.616;9.548;2022-07-23T07:05:25;7.55;;;6.65;;
9138;SDS011;4604;48.616;9.548;2022-07-23T07:07:53;10.90;;;6.40;;
9138;SDS011;4604;48.616;9.548;2022-07-23T07:10:20;9.93;;;6.97;;
9138;SDS011;4604;48.616;9.548;2022-07-23T07:12:49;7.20;;;6.50;;
9138;SDS011;4604;48.616;9.548;2022-07-23T07:15:20;7.72;;;6.88;;
9138;SDS011;4604;48.616;9.548;2022-07-23T07:17:47;9.95;;;6.55;;
9138;SDS011;4604;48.616;9.548;2022-07-23T07:20:14;7.88;;;6.22;;
9138;SDS011;4604;48.616;9.548;2022-07-23T07:22:40;7.55;;;6.63;;
9138;SDS011;4604;48.616;9.548;2022-07-23T07:25:09;8.10;;;6.25;;
9138;SDS011;4604;48.616;9.548;2022-07-23T07:27:36;6.75;;;6.05;;
9138;SDS011;4604;48.616;9.548;2022-07-23T07:30:02;7.07;;;6.20;;
9138;SDS011;4604;48.616;9.548;2022-07-23T07:32:30;6.85;;;6.15;;
9138;SDS011;4604;48.616;9.548;2022-07-23T07:34:58;9.10;;;6.05;;
9138;SDS011;4604;48.616;9.548;2022-07-23T07:37:25;6.90;;;6.03;;
9138;SDS011;4604;48.616;9.548;2022-07-23T07:39:51;7.47;;;6.60;;
9138;SDS011;4604;48.616;9.548;2022-07-23T07:42:19;7.70;;;6.90;;
9138;SDS011;4604;48.616;9.548;2022-07-23T07:44:46;8.63;;;6.68;;
9138;SDS011;4604;48.616;9.548;2022-07-23T07:47:13;8.50;;;6.80;;
9138;SDS011;4604;48.616;9.548;2022-07-23T07:49:40;7.53;;;6.60;;
9138;SDS011;4604;48.616;9.548;2022-07-23T07:52:07;7.13;;;6.43;;
9138;SDS011;4604;48.616;9.548;2022-07-23T07:54:34;9.57;;;7.30;;
9138;SDS011;4604;48.616;9.548;2022-07-23T07:57:01;7.95;;;6.78;;
9138;SDS011;4604;48.616;9.548;2022-07-23T07:59:29;7.68;;;6.80;;
9138;SDS011;4604;48.616;9.548;2022-07-23T08:01:55;13.63;;;6.53;;
9138;SDS011;4604;48.616;9.548;2022-07-23T08:04:22;7.22;;;6.53;;
9138;SDS011;4604;48.616;9.548;2022-07-23T08:06:49;9.77;;;7.25;;
9138;SDS011;4604;48.616;9.548;2022-07-23T08:09:15;7.78;;;6.13;;
9138;SDS011;4604;48.616;9.548;2022-07-23T08:11:42;9.45;;;6.30;;
9138;SDS011;4604;48.616;9.548;2022-07-23T08:14:09;8.05;;;6.25;;
9138;SDS011;4604;48.616;9.548;2022-07-23T08:16:38;7.53;;;6.32;;
9138;SDS011;4604;48.616;9.548;2022-07-23T08:19:05;7.05;;;5.93;;
9138;SDS011;4604;48.616;9.548;2022-07-23T08:21:31;10.13;;;6.80;;
9138;SDS011;4604;48.616;9.548;2022-07-23T08:23:58;7.45;;;6.22;;
9138;SDS011;4604;48.616;9.548;2022-07-23T08:26:25;7.50;;;6.55;;
9138;SDS011;4604;48.616;9.548;2022-07-23T08:28:51;8.13;;;6.80;;
9138;SDS011;4604;48.616;9.548;2022-07-23T08:31:18;7.65;;;6.65;;
9138;SDS011;4604;48.616;9.548;2022-07-23T08:33:46;6.25;;;5.65;;
9138;SDS011;4604;48.616;9.548;2022-07-23T08:36:13;8.80;;;6.72;;
9138;SDS011;4604;48.616;9.548;2022-07-23T08:38:40;7.15;;;6.45;;
9138;SDS011;4604;48.616;9.548;2022-07-23T08:41:08;8.35;;;7.15;;
9138;SDS011;4604;48.616;9.548;2022-07-23T08:43:35;7.53;;;6.65;;
9138;SDS011;4604;48.616;9.548;2022-07-23T08:46:02;8.75;;;6.63;;
9138;SDS011;4604;48.616;9.548;2022-07-23T08:48:31;7.47;;;6.55;;
9138;SDS011;4604;48.616;9.548;2022-07-23T08:51:00;9.82;;;6.32;;
9138;SDS011;4604;48.616;9.548;2022-07-23T08:53:29;9.43;;;6.97;;
9138;SDS011;4604;48.616;9.548;2022-07-23T08:55:57;8.93;;;6.78;;
9138;SDS011;4604;48.616;9.548;2022-07-23T08:58:26;7.72;;;6.40;;
9138;SDS011;4604;48.616;9.548;2022-07-23T09:00:54;6.90;;;6.20;;
9138;SDS011;4604;48.616;9.548;2022-07-23T09:03:22;7.95;;;7.13;;
9138;SDS011;4604;48.616;9.548;2022-07-23T09:05:50;9.50;;;6.95;;
9138;SDS011;4604;48.616;9.548;2022-07-23T09:08:19;9.02;;;6.97;;
9138;SDS011;4604;48.616;9.548;2022-07-23T09:10:51;7.28;;;6.57;;
9138;SDS011;4604;48.616;9.548;2022-07-23T09:13:24;8.43;;;6.65;;
9138;SDS011;4604;48.616;9.548;2022-07-23T09:16:02;7.63;;;6.78;;
9138;SDS011;4604;48.616;9.548;2022-07-23T09:18:32;8.95;;;7.18;;
9138;SDS011;4604;48.616;9.548;2022-07-23T09:21:07;8.05;;;6.75;;
9138;SDS011;4604;48.616;9.548;2022-07-23T09:23:40;9.55;;;6.82;;
9138;SDS011;4604;48.616;9.548;2022-07-23T09:26:17;7.60;;;6.78;;
9138;SDS011;4604;48.616;9.548;2022-07-23T09:28:59;8.30;;;6.90;;
9138;SDS011;4604;48.616;9.548;2022-07-23T09:31:42;7.35;;;6.65;;
9138;SDS011;4604;48.616;9.548;2022-07-23T09:34:11;7.90;;;6.85;;
9138;SDS011;4604;48.616;9.548;2022-07-23T09:36:41;9.02;;;6.70;;
9138;SDS011;4604;48.616;9.548;2022-07-23T09:39:10;8.10;;;7.10;;
9138;SDS011;4604;48.616;9.548;2022-07-23T09:41:41;7.15;;;6.43;;
9138;SDS011;4604;48.616;9.548;2022-07-23T09:44:11;6.97;;;6.28;;
9138;SDS011;4604;48.616;9.548;2022-07-23T09:46:41;8.05;;;7.20;;
9138;SDS011;4604;48.616;9.548;2022-07-23T09:49:14;8.13;;;7.22;;
9138;SDS011;4604;48.616;9.548;2022-07-23T09:51:45;6.95;;;6.25;;
9138;SDS011;4604;48.616;9.548;2022-07-23T09:57:05;7.75;;;6.80;;
9138;SDS011;4604;48.616;9.548;2022-07-23T09:59:35;6.97;;;6.28;;
9138;SDS011;4604;48.616;9.548;2022-07-23T10:02:04;8.68;;;7.10;;
9138;SDS011;4604;48.616;9.548;2022-07-23T10:04:32;8.35;;;7.28;;
9138;SDS011;4604;48.616;9.548;2022-07-23T10:06:59;8.88;;;6.60;;
9138;SDS011;4604;48.616;9.548;2022-07-23T10:09:28;7.72;;;6.93;;
9138;SDS011;4604;48.616;9.548;2022-07-23T10:11:59;9.25;;;6.75;;
9138;SDS011;4604;48.616;9.548;2022-07-23T10:14:41;8.27;;;6.88;;
9138;SDS011;4604;48.616;9.548;2022-07-23T10:17:08;7.43;;;6.72;;
9138;SDS011;4604;48.616;9.548;2022-07-23T10:19:35;9.00;;;6.85;;
9138;SDS011;4604;48.616;9.548;2022-07-23T10:22:03;7.20;;;6.50;;
9138;SDS011;4604;48.616;9.548;2022-07-23T10:24:50;11.32;;;6.70;;
9138;SDS011;4604;48.616;9.548;2022-07-23T10:27:34;8.55;;;6.68;;
9138;SDS011;4604;48.616;9.548;2022-07-23T10:30:18;8.88;;;6.88;;
9138;SDS011;4604;48.616;9.548;2022-07-23T10:33:00;7.00;;;6.22;;
9138;SDS011;4604;48.616;9.548;2022-07-23T10:35:43;7.90;;;6.72;;
9138;SDS011;4604;48.616;9.548;2022-07-23T10:38:18;7.47;;;6.68;;
9138;SDS011;4604;48.616;9.548;2022-07-23T10:40:53;8.55;;;6.72;;
9138;SDS011;4604;48.616;9.548;2022-07-23T10:43:23;7.45;;;6.20;;
9138;SDS011;4604;48.616;9.548;2022-07-23T10:45:51;7.50;;;6.65;;
9138;SDS011;4604;48.616;9.548;2022-07-23T10:48:19;8.43;;;6.95;;
9138;SDS011;4604;48.616;9.548;2022-07-23T11:02:46;7.97;;;6.85;;
9138;SDS011;4604;48.616;9.548;2022-07-23T11:05:15;7.90;;;7.13;;
9138;SDS011;4604;48.616;9.548;2022-07-23T11:10:45;7.60;;;6.90;;
9138;SDS011;4604;48.616;9.548;2022-07-23T11:13:27;7.68;;;6.85;;
9138;SDS011;4604;48.616;9.548;2022-07-23T11:21:48;8.13;;;6.43;;
9138;SDS011;4604;48.616;9.548;2022-07-23T11:24:17;8.98;;;6.78;;
9138;SDS011;4604;48.616;9.548;2022-07-23T11:26:52;7.43;;;6.55;;
9138;SDS011;4604;48.616;9.548;2022-07-23T11:29:39;9.32;;;7.30;;
9138;SDS011;4604;48.616;9.548;2022-07-23T11:32:19;9.30;;;7.22;;
9138;SDS011;4604;48.616;9.548;2022-07-23T11:34:50;7.53;;;6.80;;
9138;SDS011;4604;48.616;9.548;2022-07-23T11:37:34;8.82;;;6.70;;
9138;SDS011;4604;48.616;9.548;2022-07-23T11:40:04;10.35;;;7.28;;
9138;SDS011;4604;48.616;9.548;2022-07-23T11:42:34;7.63;;;6.63;;
9138;SDS011;4604;48.616;9.548;2022-07-23T11:45:03;9.20;;;7.22;;
9138;SDS011;4604;48.616;9.548;2022-07-23T11:47:32;7.90;;;7.10;;
9138;SDS011;4604;48.616;9.548;2022-07-23T11:49:59;7.50;;;6.80;;
9138;SDS011;4604;48.616;9.548;2022-07-23T11:52:28;9.85;;;6.90;;
9138;SDS011;4604;48.616;9.548;2022-07-23T11:54:56;9.13;;;7.28;;
9138;SDS011;4604;48.616;9.548;2022-07-23T11:57:24;9.93;;;7.10;;
9138;SDS011;4604;48.616;9.548;2022-07-23T11:59:52;7.07;;;6.32;;
9138;SDS011;4604;48.616;9.548;2022-07-23T12:02:21;6.57;;;5.97;;
9138;SDS011;4604;48.616;9.548;2022-07-23T12:04:50;8.25;;;6.43;;
9138;SDS011;4604;48.616;9.548;2022-07-23T12:07:28;6.93;;;6.22;;
9138;SDS011;4604;48.616;9.548;2022-07-23T12:09:56;7.07;;;5.93;;
9138;SDS011;4604;48.616;9.548;2022-07-23T12:12:24;9.32;;;6.38;;
9138;SDS011;4604;48.616;9.548;2022-07-23T12:14:52;7.15;;;6.45;;
9138;SDS011;4604;48.616;9.548;2022-07-23T12:17:21;6.82;;;6.03;;
9138;SDS011;4604;48.616;9.548;2022-07-23T12:19:55;7.10;;;6.40;;
9138;SDS011;4604;48.616;9.548;2022-07-23T12:22:22;7.80;;;6.50;;
9138;SDS011;4604;48.616;9.548;2022-07-23T12:24:57;6.80;;;6.20;;
9138;SDS011;4604;48.616;9.548;2022-07-23T12:27:26;7.25;;;6.55;;
9138;SDS011;4604;48.616;9.548;2022-07-23T12:29:53;7.20;;;6.50;;
9138;SDS011;4604;48.616;9.548;2022-07-23T12:32:21;9.43;;;6.60;;
9138;SDS011;4604;48.616;9.548;2022-07-23T12:34:49;9.65;;;6.78;;
9138;SDS011;4604;48.616;9.548;2022-07-23T12:37:31;9.50;;;6.25;;
9138;SDS011;4604;48.616;9.548;2022-07-23T12:42:45;8.13;;;6.30;;
9138;SDS011;4604;48.616;9.548;2022-07-23T12:45:12;7.32;;;6.60;;
9138;SDS011;4604;48.616;9.548;2022-07-23T12:47:58;7.15;;;6.00;;
9138;SDS011;4604;48.616;9.548;2022-07-23T12:50:36;6.70;;;6.00;;
9138;SDS011;4604;48.616;9.548;2022-07-23T12:53:08;7.03;;;6.35;;
9138;SDS011;4604;48.616;9.548;2022-07-23T12:55:36;6.60;;;5.68;;
9138;SDS011;4604;48.616;9.548;2022-07-23T12:58:05;7.25;;;6.15;;
9138;SDS011;4604;48.616;9.548;2022-07-23T13:03:32;7.20;;;6.50;;
9138;SDS011;4604;48.616;9.548;2022-07-23T13:06:02;8.68;;;6.70;;
9138;SDS011;4604;48.616;9.548;2022-07-23T13:08:33;6.80;;;6.10;;
9138;SDS011;4604;48.616;9.548;2022-07-23T13:11:01;7.82;;;6.18;;
9138;SDS011;4604;48.616;9.548;2022-07-23T13:13:30;7.22;;;6.35;;
9138;SDS011;4604;48.616;9.548;2022-07-23T13:16:00;6.68;;;6.07;;
9138;SDS011;4604;48.616;9.548;2022-07-23T13:18:27;6.80;;;6.10;;
9138;SDS011;4604;48.616;9.548;2022-07-23T13:20:54;6.75;;;6.15;;
9138;SDS011;4604;48.616;9.548;2022-07-23T13:23:21;6.78;;;6.00;;
9138;SDS011;4604;48.616;9.548;2022-07-23T13:25:50;6.60;;;6.00;;
9138;SDS011;4604;48.616;9.548;2022-07-23T13:28:17;6.18;;;5.57;;
9138;SDS011;4604;48.616;9.548;2022-07-23T13:30:45;7.68;;;6.88;;
9138;SDS011;4604;48.616;9.548;2022-07-23T13:33:15;7.30;;;5.65;;
9138;SDS011;4604;48.616;9.548;2022-07-23T13:35:42;12.93;;;10.05;;
9138;SDS011;4604;48.616;9.548;2022-07-23T13:38:09;6.72;;;5.97;;
9138;SDS011;4604;48.616;9.548;2022-07-23T13:40:36;6.85;;;6.15;;
9138;SDS011;4604;48.616;9.548;2022-07-23T13:43:06;8.35;;;5.95;;
9138;SDS011;4604;48.616;9.548;2022-07-23T13:45:33;6.55;;;5.95;;
9138;SDS011;4604;48.616;9.548;2022-07-23T13:48:00;6.25;;;5.65;;
9138;SDS011;4604;48.616;9.548;2022-07-23T13:50:27;6.68;;;5.95;;
9138;SDS011;4604;48.616;9.548;2022-07-23T13:52:54;7.10;;;6.40;;
9138;SDS011;4604;48.616;9.548;2022-07-23T13:55:21;6.75;;;6.10;;
9138;SDS011;4604;48.616;9.548;2022-07-23T13:57:47;6.93;;;6.20;;
9138;SDS011;4604;48.616;9.548;2022-07-23T14:00:16;6.95;;;6.13;;
9138;SDS011;4604;48.616;9.548;2022-07-23T14:02:43;6.50;;;5.80;;
9138;SDS011;4604;48.616;9.548;2022-07-23T14:05:10;7.20;;;6.50;;
9138;SDS011;4604;48.616;9.548;2022-07-23T14:07:37;7.45;;;6.05;;
9138;SDS011;4604;48.616;9.548;2022-07-23T14:10:05;9.82;;;6.57;;
9138;SDS011;4604;48.616;9.548;2022-07-23T14:12:33;6.55;;;5.93;;
9138;SDS011;4604;48.616;9.548;2022-07-23T14:15:00;6.78;;;6.07;;
9138;SDS011;4604;48.616;9.548;2022-07-23T14:17:28;7.47;;;5.70;;
9138;SDS011;4604;48.616;9.548;2022-07-23T14:19:56;6.93;;;6.30;;
9138;SDS011;4604;48.616;9.548;2022-07-23T14:22:23;7.45;;;5.72;;
9138;SDS011;4604;48.616;9.548;2022-07-23T14:24:50;6.85;;;6.18;;
9138;SDS011;4604;48.616;9.548;2022-07-23T14:27:17;6.97;;;6.32;;
9138;SDS011;4604;48.616;9.548;2022-07-23T14:29:44;6.68;;;5.93;;
9138;SDS011;4604;48.616;9.548;2022-07-23T14:32:10;6.47;;;5.88;;
9138;SDS011;4604;48.616;9.548;2022-07-23T14:34:39;7.15;;;6.45;;
9138;SDS011;4604;48.616;9.548;2022-07-23T14:37:05;7.07;;;6.38;;
9138;SDS011;4604;48.616;9.548;2022-07-23T14:39:32;6.70;;;6.00;;
9138;SDS011;4604;48.616;9.548;2022-07-23T14:41:59;7.65;;;6.80;;
9138;SDS011;4604;48.616;9.548;2022-07-23T14:44:25;7.30;;;5.95;;
9138;SDS011;4604;48.616;9.548;2022-07-23T14:46:52;7.22;;;6.53;;
9138;SDS011;4604;48.616;9.548;2022-07-23T14:49:19;8.10;;;6.32;;
9138;SDS011;4604;48.616;9.548;2022-07-23T14:51:47;6.65;;;6.00;;
9138;SDS011;4604;48.616;9.548;2022-07-23T14:54:14;6.97;;;6.28;;
9138;SDS011;4604;48.616;9.548;2022-07-23T14:56:41;6.72;;;6.13;;
9138;SDS011;4604;48.616;9.548;2022-07-23T14:59:08;7.97;;;6.25;;
9138;SDS011;4604;48.616;9.548;2022-07-23T15:01:35;7.13;;;6.43;;
9138;SDS011;4604;48.616;9.548;2022-07-23T15:04:02;7.53;;;6.00;;
9138;SDS011;4604;48.616;9.548;2022-07-23T15:06:29;6.93;;;6.22;;
9138;SDS011;4604;48.616;9.548;2022-07-23T15:08:58;7.35;;;6.65;;
9138;SDS011;4604;48.616;9.548;2022-07-23T15:11:26;6.38;;;5.78;;
9138;SDS011;4604;48.616;9.548;2022-07-23T15:13:54;8.20;;;6.35;;
9138;SDS011;4604;48.616;9.548;2022-07-23T15:16:20;7.95;;;6.35;;
9138;SDS011;4604;48.616;9.548;2022-07-23T15:18:47;7.07;;;6.38;;
9138;SDS011;4604;48.616;9.548;2022-07-23T15:21:14;7.75;;;6.85;;
9138;SDS011;4604;48.616;9.548;2022-07-23T15:23:41;6.72;;;6.13;;
9138;SDS011;4604;48.616;9.548;2022-07-23T15:26:09;7.35;;;6.50;;
9138;SDS011;4604;48.616;9.548;2022-07-23T15:28:36;6.70;;;6.00;;
9138;SDS011;4604;48.616;9.548;2022-07-23T15:31:03;8.82;;;6.10;;
9138;SDS011;4604;48.616;9.548;2022-07-23T15:33:30;9.18;;;6.43;;
9138;SDS011;4604;48.616;9.548;2022-07-23T15:35:57;8.35;;;6.45;;
9138;SDS011;4604;48.616;9.548;2022-07-23T15:38:24;6.72;;;5.90;;
9138;SDS011;4604;48.616;9.548;2022-07-23T15:40:51;8.00;;;6.50;;
9138;SDS011;4604;48.616;9.548;2022-07-23T15:43:21;6.75;;;6.05;;
9138;SDS011;4604;48.616;9.548;2022-07-23T15:45:48;7.43;;;6.72;;
9138;SDS011;4604;48.616;9.548;2022-07-23T15:48:15;7.35;;;6.30;;
9138;SDS011;4604;48.616;9.548;2022-07-23T15:50:42;6.75;;;6.03;;